sensor_id;sensor_type;location;lat;lon;timestamp;P1;durP1;ratioP1;P2;durP2;ratioP2
23722;SDS011;12042;52.136;5.584;2022-10-16T00:02:01;3.75;;;2.88;;
23722;SDS011;12042;52.136;5.584;2022-10-16T00:04:27;5.05;;;2.78;;
23722;SDS011;12042;52.136;5.584;2022-10-16T00:06:52;3.38;;;3.00;;
23722;SDS011;12042;52.136;5.584;2022-10-16T00:09:18;5.35;;;2.80;;
23722;SDS011;12042;52.136;5.584;2022-10-16T00:11:44;5.95;;;2.88;;
23722;SDS011;12042;52.136;5.584;2022-10-16T00:14:11;7.20;;;3.30;;
23722;SDS011;12042;52.136;5.584;2022-10-16T00:16:39;8.88;;;3.50;;
23722;SDS011;12042;52.136;5.584;2022-10-16T00:19:05;7.47;;;3.10;;
23722;SDS011;12042;52.136;5.584;2022-10-16T00:21:31;6.10;;;3.10;;
23722;SDS011;12042;52.136;5.584;2022-10-16T00:24:01;7.75;;;3.47;;
23722;SDS011;12042;52.136;5.584;2022-10-16T00:26:32;5.72;;;2.95;;
23722;SDS011;12042;52.136;5.584;2022-10-16T00:28:58;5.15;;;3.20;;
23722;SDS011;12042;52.136;5.584;2022-10-16T00:31:24;4.75;;;3.13;;
23722;SDS011;12042;52.136;5.584;2022-10-16T00:33:50;3.45;;;3.13;;
23722;SDS011;12042;52.136;5.584;2022-10-16T00:36:18;7.20;;;2.97;;
23722;SDS011;12042;52.136;5.584;2022-10-16T00:38:45;6.38;;;3.20;;
23722;SDS011;12042;52.136;5.584;2022-10-16T00:41:15;3.28;;;3.08;;
23722;SDS011;12042;52.136;5.584;2022-10-16T00:43:49;4.22;;;2.80;;
23722;SDS011;12042;52.136;5.584;2022-10-16T00:46:23;7.43;;;3.10;;
23722;SDS011;12042;52.136;5.584;2022-10-16T00:49:01;3.58;;;3.28;;
23722;SDS011;12042;52.136;5.584;2022-10-16T00:51:40;5.82;;;3.05;;
23722;SDS011;12042;52.136;5.584;2022-10-16T00:54:14;4.55;;;3.05;;
23722;SDS011;12042;52.136;5.584;2022-10-16T00:56:43;4.70;;;3.30;;
23722;SDS011;12042;52.136;5.584;2022-10-16T00:59:17;3.22;;;2.92;;
23722;SDS011;12042;52.136;5.584;2022-10-16T01:01:51;7.15;;;2.88;;
23722;SDS011;12042;52.136;5.584;2022-10-16T01:04:17;4.07;;;2.97;;
23722;SDS011;12042;52.136;5.584;2022-10-16T01:07:05;3.30;;;3.00;;
23722;SDS011;12042;52.136;5.584;2022-10-16T01:09:37;3.33;;;3.03;;
23722;SDS011;12042;52.136;5.584;2022-10-16T01:12:42;5.85;;;2.63;;
23722;SDS011;12042;52.136;5.584;2022-10-16T01:15:31;4.07;;;2.97;;
23722;SDS011;12042;52.136;5.584;2022-10-16T01:18:05;4.07;;;2.92;;
23722;SDS011;12042;52.136;5.584;2022-10-16T01:20:47;6.43;;;3.05;;
23722;SDS011;12042;52.136;5.584;2022-10-16T01:31:27;3.75;;;2.92;;
23722;SDS011;12042;52.136;5.584;2022-10-16T01:33:59;3.85;;;3.25;;
23722;SDS011;12042;52.136;5.584;2022-10-16T01:36:39;3.42;;;2.80;;
23722;SDS011;12042;52.136;5.584;2022-10-16T01:39:09;3.58;;;3.30;;
23722;SDS011;12042;52.136;5.584;2022-10-16T01:41:41;5.38;;;2.83;;
23722;SDS011;12042;52.136;5.584;2022-10-16T01:44:16;3.60;;;3.20;;
23722;SDS011;12042;52.136;5.584;2022-10-16T01:46:52;4.22;;;3.15;;
23722;SDS011;12042;52.136;5.584;2022-10-16T01:49:21;6.50;;;3.22;;
23722;SDS011;12042;52.136;5.584;2022-10-16T01:51:50;6.45;;;3.38;;
23722;SDS011;12042;52.136;5.584;2022-10-16T01:54:20;6.25;;;3.35;;
23722;SDS011;12042;52.136;5.584;2022-10-16T01:56:51;3.28;;;2.97;;
23722;SDS011;12042;52.136;5.584;2022-10-16T01:59:20;7.65;;;3.30;;
23722;SDS011;12042;52.136;5.584;2022-10-16T02:02:07;3.72;;;3.20;;
23722;SDS011;12042;52.136;5.584;2022-10-16T02:04:38;3.95;;;3.13;;
23722;SDS011;12042;52.136;5.584;2022-10-16T02:07:08;3.17;;;2.97;;
23722;SDS011;12042;52.136;5.584;2022-10-16T02:09:35;3.63;;;3.33;;
23722;SDS011;12042;52.136;5.584;2022-10-16T02:12:15;5.32;;;3.08;;
23722;SDS011;12042;52.136;5.584;2022-10-16T02:14:52;3.40;;;3.10;;
23722;SDS011;12042;52.136;5.584;2022-10-16T02:17:19;3.65;;;3.35;;
23722;SDS011;12042;52.136;5.584;2022-10-16T02:19:46;4.22;;;3.33;;
23722;SDS011;12042;52.136;5.584;2022-10-16T02:22:47;5.72;;;3.58;;
23722;SDS011;12042;52.136;5.584;2022-10-16T02:27:51;5.35;;;3.55;;
23722;SDS011;12042;52.136;5.584;2022-10-16T02:30:30;6.22;;;3.67;;
23722;SDS011;12042;52.136;5.584;2022-10-16T02:33:00;3.40;;;3.10;;
23722;SDS011;12042;52.136;5.584;2022-10-16T02:35:30;4.60;;;3.22;;
23722;SDS011;12042;52.136;5.584;2022-10-16T02:37:56;4.38;;;3.30;;
23722;SDS011;12042;52.136;5.584;2022-10-16T02:40:22;3.75;;;2.97;;
23722;SDS011;12042;52.136;5.584;2022-10-16T02:42:53;5.60;;;3.00;;
23722;SDS011;12042;52.136;5.584;2022-10-16T02:45:20;3.58;;;3.25;;
23722;SDS011;12042;52.136;5.584;2022-10-16T02:47:47;3.08;;;2.80;;
23722;SDS011;12042;52.136;5.584;2022-10-16T02:50:13;3.30;;;3.10;;
23722;SDS011;12042;52.136;5.584;2022-10-16T02:52:40;3.00;;;2.80;;
23722;SDS011;12042;52.136;5.584;2022-10-16T02:55:05;3.55;;;3.25;;
23722;SDS011;12042;52.136;5.584;2022-10-16T02:57:31;3.40;;;3.10;;
23722;SDS011;12042;52.136;5.584;2022-10-16T02:59:58;3.75;;;3.53;;
23722;SDS011;12042;52.136;5.584;2022-10-16T03:02:24;5.20;;;3.47;;
23722;SDS011;12042;52.136;5.584;2022-10-16T03:04:49;4.13;;;3.40;;
23722;SDS011;12042;52.136;5.584;2022-10-16T03:07:15;4.05;;;3.28;;
23722;SDS011;12042;52.136;5.584;2022-10-16T03:09:41;3.80;;;3.50;;
23722;SDS011;12042;52.136;5.584;2022-10-16T03:12:07;3.97;;;3.72;;
23722;SDS011;12042;52.136;5.584;2022-10-16T03:14:32;5.05;;;3.65;;
23722;SDS011;12042;52.136;5.584;2022-10-16T03:16:58;4.03;;;3.38;;
23722;SDS011;12042;52.136;5.584;2022-10-16T03:19:25;3.58;;;3.17;;
23722;SDS011;12042;52.136;5.584;2022-10-16T03:21:50;3.10;;;2.90;;
23722;SDS011;12042;52.136;5.584;2022-10-16T03:24:16;3.85;;;3.30;;
23722;SDS011;12042;52.136;5.584;2022-10-16T03:26:42;3.60;;;3.40;;
23722;SDS011;12042;52.136;5.584;2022-10-16T03:29:07;3.08;;;2.88;;
23722;SDS011;12042;52.136;5.584;2022-10-16T03:31:33;3.15;;;2.97;;
23722;SDS011;12042;52.136;5.584;2022-10-16T03:33:58;3.63;;;3.30;;
23722;SDS011;12042;52.136;5.584;2022-10-16T03:36:24;3.70;;;3.45;;
23722;SDS011;12042;52.136;5.584;2022-10-16T03:38:50;4.00;;;3.30;;
23722;SDS011;12042;52.136;5.584;2022-10-16T03:41:15;3.83;;;3.53;;
23722;SDS011;12042;52.136;5.584;2022-10-16T03:43:41;3.45;;;3.25;;
23722;SDS011;12042;52.136;5.584;2022-10-16T03:46:07;3.72;;;3.42;;
23722;SDS011;12042;52.136;5.584;2022-10-16T03:48:32;3.92;;;3.40;;
23722;SDS011;12042;52.136;5.584;2022-10-16T03:50:58;5.13;;;3.67;;
23722;SDS011;12042;52.136;5.584;2022-10-16T03:53:24;4.78;;;3.15;;
23722;SDS011;12042;52.136;5.584;2022-10-16T03:55:49;4.40;;;3.30;;
23722;SDS011;12042;52.136;5.584;2022-10-16T03:58:15;3.60;;;3.22;;
23722;SDS011;12042;52.136;5.584;2022-10-16T04:00:42;3.67;;;3.38;;
23722;SDS011;12042;52.136;5.584;2022-10-16T04:03:08;4.43;;;3.15;;
23722;SDS011;12042;52.136;5.584;2022-10-16T04:05:34;4.05;;;3.33;;
23722;SDS011;12042;52.136;5.584;2022-10-16T04:08:00;3.22;;;2.97;;
23722;SDS011;12042;52.136;5.584;2022-10-16T04:10:27;3.33;;;2.83;;
23722;SDS011;12042;52.136;5.584;2022-10-16T04:12:52;4.85;;;3.00;;
23722;SDS011;12042;52.136;5.584;2022-10-16T04:15:21;2.92;;;2.75;;
23722;SDS011;12042;52.136;5.584;2022-10-16T04:17:50;3.85;;;3.50;;
23722;SDS011;12042;52.136;5.584;2022-10-16T04:20:16;4.40;;;3.20;;
23722;SDS011;12042;52.136;5.584;2022-10-16T04:22:42;3.70;;;2.75;;
23722;SDS011;12042;52.136;5.584;2022-10-16T04:25:08;5.68;;;3.03;;
23722;SDS011;12042;52.136;5.584;2022-10-16T04:27:34;2.90;;;2.70;;
23722;SDS011;12042;52.136;5.584;2022-10-16T04:30:00;3.10;;;2.90;;
23722;SDS011;12042;52.136;5.584;2022-10-16T04:32:25;4.25;;;3.10;;
23722;SDS011;12042;52.136;5.584;2022-10-16T04:34:51;3.67;;;3.17;;
23722;SDS011;12042;52.136;5.584;2022-10-16T04:37:17;3.20;;;2.97;;
23722;SDS011;12042;52.136;5.584;2022-10-16T04:39:43;3.08;;;2.75;;
23722;SDS011;12042;52.136;5.584;2022-10-16T04:42:09;3.15;;;2.95;;
23722;SDS011;12042;52.136;5.584;2022-10-16T04:44:35;4.72;;;3.17;;
23722;SDS011;12042;52.136;5.584;2022-10-16T04:47:01;3.17;;;2.88;;
23722;SDS011;12042;52.136;5.584;2022-10-16T04:49:26;3.38;;;3.08;;
23722;SDS011;12042;52.136;5.584;2022-10-16T04:51:52;3.47;;;2.90;;
23722;SDS011;12042;52.136;5.584;2022-10-16T04:54:18;3.10;;;2.80;;
23722;SDS011;12042;52.136;5.584;2022-10-16T04:56:43;3.25;;;2.92;;
23722;SDS011;12042;52.136;5.584;2022-10-16T04:59:13;3.90;;;2.88;;
23722;SDS011;12042;52.136;5.584;2022-10-16T05:01:40;4.78;;;3.17;;
23722;SDS011;12042;52.136;5.584;2022-10-16T05:04:05;6.43;;;2.92;;
23722;SDS011;12042;52.136;5.584;2022-10-16T05:06:31;5.78;;;3.00;;
23722;SDS011;12042;52.136;5.584;2022-10-16T05:08:57;3.40;;;3.10;;
23722;SDS011;12042;52.136;5.584;2022-10-16T05:11:22;2.92;;;2.70;;
23722;SDS011;12042;52.136;5.584;2022-10-16T05:13:48;3.90;;;3.00;;
23722;SDS011;12042;52.136;5.584;2022-10-16T05:16:13;3.83;;;3.13;;
23722;SDS011;12042;52.136;5.584;2022-10-16T05:18:39;3.05;;;2.80;;
23722;SDS011;12042;52.136;5.584;2022-10-16T05:21:04;5.78;;;3.03;;
23722;SDS011;12042;52.136;5.584;2022-10-16T05:23:31;4.05;;;3.63;;
23722;SDS011;12042;52.136;5.584;2022-10-16T05:25:57;4.55;;;3.22;;
23722;SDS011;12042;52.136;5.584;2022-10-16T05:28:28;3.92;;;3.63;;
23722;SDS011;12042;52.136;5.584;2022-10-16T05:30:56;6.18;;;3.88;;
23722;SDS011;12042;52.136;5.584;2022-10-16T05:33:22;7.32;;;3.67;;
23722;SDS011;12042;52.136;5.584;2022-10-16T05:35:50;5.03;;;4.45;;
23722;SDS011;12042;52.136;5.584;2022-10-16T05:38:16;6.30;;;4.47;;
23722;SDS011;12042;52.136;5.584;2022-10-16T05:40:51;4.32;;;4.00;;
23722;SDS011;12042;52.136;5.584;2022-10-16T05:43:21;5.32;;;4.40;;
23722;SDS011;12042;52.136;5.584;2022-10-16T05:45:56;6.80;;;4.45;;
23722;SDS011;12042;52.136;5.584;2022-10-16T05:48:23;5.43;;;4.35;;
23722;SDS011;12042;52.136;5.584;2022-10-16T05:51:00;5.93;;;4.90;;
23722;SDS011;12042;52.136;5.584;2022-10-16T05:53:28;6.55;;;5.07;;
23722;SDS011;12042;52.136;5.584;2022-10-16T05:55:55;7.82;;;5.43;;
23722;SDS011;12042;52.136;5.584;2022-10-16T05:58:21;7.18;;;5.55;;
23722;SDS011;12042;52.136;5.584;2022-10-16T06:00:57;7.82;;;5.45;;
23722;SDS011;12042;52.136;5.584;2022-10-16T06:03:24;6.28;;;5.68;;
23722;SDS011;12042;52.136;5.584;2022-10-16T06:05:50;6.22;;;5.63;;
23722;SDS011;12042;52.136;5.584;2022-10-16T06:08:16;8.30;;;5.75;;
23722;SDS011;12042;52.136;5.584;2022-10-16T06:10:43;7.28;;;5.65;;
23722;SDS011;12042;52.136;5.584;2022-10-16T06:13:09;8.02;;;5.63;;
23722;SDS011;12042;52.136;5.584;2022-10-16T06:15:35;5.53;;;5.10;;
23722;SDS011;12042;52.136;5.584;2022-10-16T06:18:01;6.38;;;5.05;;
23722;SDS011;12042;52.136;5.584;2022-10-16T06:20:27;5.07;;;4.68;;
23722;SDS011;12042;52.136;5.584;2022-10-16T06:22:52;5.07;;;4.40;;
23722;SDS011;12042;52.136;5.584;2022-10-16T06:25:18;4.53;;;4.20;;
23722;SDS011;12042;52.136;5.584;2022-10-16T06:27:43;4.53;;;4.30;;
23722;SDS011;12042;52.136;5.584;2022-10-16T06:30:09;9.07;;;4.50;;
23722;SDS011;12042;52.136;5.584;2022-10-16T06:32:35;5.32;;;4.25;;
23722;SDS011;12042;52.136;5.584;2022-10-16T06:35:00;5.78;;;4.07;;
23722;SDS011;12042;52.136;5.584;2022-10-16T06:37:26;6.03;;;4.35;;
23722;SDS011;12042;52.136;5.584;2022-10-16T06:39:52;4.78;;;3.42;;
23722;SDS011;12042;52.136;5.584;2022-10-16T06:42:18;3.95;;;3.65;;
23722;SDS011;12042;52.136;5.584;2022-10-16T06:44:43;7.40;;;3.80;;
23722;SDS011;12042;52.136;5.584;2022-10-16T06:47:09;7.72;;;3.60;;
23722;SDS011;12042;52.136;5.584;2022-10-16T06:49:35;5.93;;;3.70;;
23722;SDS011;12042;52.136;5.584;2022-10-16T06:52:01;6.93;;;3.85;;
23722;SDS011;12042;52.136;5.584;2022-10-16T06:54:27;5.45;;;3.83;;
23722;SDS011;12042;52.136;5.584;2022-10-16T06:56:53;3.72;;;3.33;;
23722;SDS011;12042;52.136;5.584;2022-10-16T06:59:19;5.15;;;3.97;;
23722;SDS011;12042;52.136;5.584;2022-10-16T07:01:46;4.25;;;3.60;;
23722;SDS011;12042;52.136;5.584;2022-10-16T07:04:11;4.95;;;3.53;;
23722;SDS011;12042;52.136;5.584;2022-10-16T07:06:37;4.85;;;3.60;;
23722;SDS011;12042;52.136;5.584;2022-10-16T07:09:04;4.68;;;3.47;;
23722;SDS011;12042;52.136;5.584;2022-10-16T07:11:31;4.82;;;3.40;;
23722;SDS011;12042;52.136;5.584;2022-10-16T07:13:57;6.35;;;3.42;;
23722;SDS011;12042;52.136;5.584;2022-10-16T07:16:24;4.53;;;3.25;;
23722;SDS011;12042;52.136;5.584;2022-10-16T07:18:58;3.35;;;3.05;;
23722;SDS011;12042;52.136;5.584;2022-10-16T07:21:28;6.50;;;3.10;;
23722;SDS011;12042;52.136;5.584;2022-10-16T07:24:00;4.28;;;3.38;;
23722;SDS011;12042;52.136;5.584;2022-10-16T07:26:27;5.28;;;3.20;;
23722;SDS011;12042;52.136;5.584;2022-10-16T07:28:55;3.00;;;2.80;;
23722;SDS011;12042;52.136;5.584;2022-10-16T07:31:21;7.85;;;4.10;;
23722;SDS011;12042;52.136;5.584;2022-10-16T07:33:48;7.00;;;3.55;;
23722;SDS011;12042;52.136;5.584;2022-10-16T07:36:14;8.38;;;4.20;;
23722;SDS011;12042;52.136;5.584;2022-10-16T07:38:41;5.07;;;3.22;;
23722;SDS011;12042;52.136;5.584;2022-10-16T07:41:09;3.33;;;2.95;;
23722;SDS011;12042;52.136;5.584;2022-10-16T07:43:39;3.60;;;2.70;;
23722;SDS011;12042;52.136;5.584;2022-10-16T07:46:05;3.40;;;2.55;;
23722;SDS011;12042;52.136;5.584;2022-10-16T07:48:31;5.05;;;2.58;;
23722;SDS011;12042;52.136;5.584;2022-10-16T07:50:59;3.92;;;2.80;;
23722;SDS011;12042;52.136;5.584;2022-10-16T07:53:27;3.67;;;2.80;;
23722;SDS011;12042;52.136;5.584;2022-10-16T07:56:00;3.78;;;2.67;;
23722;SDS011;12042;52.136;5.584;2022-10-16T07:58:28;4.00;;;3.55;;
23722;SDS011;12042;52.136;5.584;2022-10-16T08:00:54;4.18;;;2.80;;
23722;SDS011;12042;52.136;5.584;2022-10-16T08:03:20;5.65;;;3.13;;
23722;SDS011;12042;52.136;5.584;2022-10-16T08:05:46;3.38;;;2.95;;
23722;SDS011;12042;52.136;5.584;2022-10-16T08:08:15;7.85;;;2.97;;
23722;SDS011;12042;52.136;5.584;2022-10-16T08:10:42;9.40;;;3.75;;
23722;SDS011;12042;52.136;5.584;2022-10-16T08:13:07;4.78;;;3.17;;
23722;SDS011;12042;52.136;5.584;2022-10-16T08:15:33;7.57;;;4.20;;
23722;SDS011;12042;52.136;5.584;2022-10-16T08:17:59;5.93;;;3.60;;
23722;SDS011;12042;52.136;5.584;2022-10-16T08:20:27;4.38;;;3.13;;
23722;SDS011;12042;52.136;5.584;2022-10-16T08:22:54;4.82;;;2.92;;
23722;SDS011;12042;52.136;5.584;2022-10-16T08:25:20;5.72;;;3.10;;
23722;SDS011;12042;52.136;5.584;2022-10-16T08:27:47;3.35;;;3.05;;
23722;SDS011;12042;52.136;5.584;2022-10-16T08:30:12;4.65;;;2.92;;
23722;SDS011;12042;52.136;5.584;2022-10-16T08:32:38;5.72;;;2.95;;
23722;SDS011;12042;52.136;5.584;2022-10-16T08:35:06;4.95;;;2.97;;
23722;SDS011;12042;52.136;5.584;2022-10-16T08:37:32;3.05;;;2.72;;
23722;SDS011;12042;52.136;5.584;2022-10-16T08:40:01;5.88;;;3.05;;
23722;SDS011;12042;52.136;5.584;2022-10-16T08:50:48;3.90;;;2.80;;
23722;SDS011;12042;52.136;5.584;2022-10-16T08:53:24;3.95;;;2.60;;
23722;SDS011;12042;52.136;5.584;2022-10-16T08:56:07;3.20;;;2.83;;
23722;SDS011;12042;52.136;5.584;2022-10-16T08:58:33;7.65;;;2.90;;
23722;SDS011;12042;52.136;5.584;2022-10-16T09:01:00;5.30;;;3.00;;
23722;SDS011;12042;52.136;5.584;2022-10-16T09:09:35;6.13;;;2.80;;
23722;SDS011;12042;52.136;5.584;2022-10-16T09:12:55;5.82;;;2.78;;
23722;SDS011;12042;52.136;5.584;2022-10-16T09:15:17;7.93;;;2.88;;
23722;SDS011;12042;52.136;5.584;2022-10-16T09:18:12;6.07;;;2.70;;
23722;SDS011;12042;52.136;5.584;2022-10-16T09:23:30;13.13;;;2.35;;
23722;SDS011;12042;52.136;5.584;2022-10-16T09:26:02;12.50;;;2.42;;
23722;SDS011;12042;52.136;5.584;2022-10-16T09:28:29;6.85;;;2.05;;
23722;SDS011;12042;52.136;5.584;2022-10-16T09:30:55;10.73;;;2.63;;
23722;SDS011;12042;52.136;5.584;2022-10-16T09:33:22;5.88;;;2.13;;
23722;SDS011;12042;52.136;5.584;2022-10-16T09:35:51;9.63;;;2.25;;
23722;SDS011;12042;52.136;5.584;2022-10-16T09:40:53;9.20;;;2.28;;
23722;SDS011;12042;52.136;5.584;2022-10-16T09:43:21;10.02;;;2.42;;
23722;SDS011;12042;52.136;5.584;2022-10-16T09:46:05;9.48;;;2.47;;
23722;SDS011;12042;52.136;5.584;2022-10-16T09:48:44;8.50;;;2.45;;
23722;SDS011;12042;52.136;5.584;2022-10-16T09:51:24;10.68;;;2.63;;
23722;SDS011;12042;52.136;5.584;2022-10-16T09:53:59;9.90;;;2.67;;
23722;SDS011;12042;52.136;5.584;2022-10-16T09:56:27;9.45;;;2.28;;
23722;SDS011;12042;52.136;5.584;2022-10-16T09:58:57;6.25;;;2.10;;
23722;SDS011;12042;52.136;5.584;2022-10-16T10:01:46;6.30;;;2.30;;
23722;SDS011;12042;52.136;5.584;2022-10-16T10:04:15;7.75;;;2.70;;
23722;SDS011;12042;52.136;5.584;2022-10-16T10:06:45;8.15;;;2.40;;
23722;SDS011;12042;52.136;5.584;2022-10-16T10:11:54;6.75;;;2.25;;
23722;SDS011;12042;52.136;5.584;2022-10-16T10:14:25;7.10;;;2.33;;
23722;SDS011;12042;52.136;5.584;2022-10-16T10:17:02;5.57;;;2.33;;
23722;SDS011;12042;52.136;5.584;2022-10-16T10:19:45;8.80;;;2.30;;
23722;SDS011;12042;52.136;5.584;2022-10-16T10:22:16;10.63;;;2.42;;
23722;SDS011;12042;52.136;5.584;2022-10-16T10:30:24;5.53;;;2.13;;
23722;SDS011;12042;52.136;5.584;2022-10-16T10:35:31;11.43;;;2.25;;
23722;SDS011;12042;52.136;5.584;2022-10-16T10:41:12;13.88;;;2.35;;
23722;SDS011;12042;52.136;5.584;2022-10-16T10:43:55;8.55;;;2.25;;
23722;SDS011;12042;52.136;5.584;2022-10-16T10:54:13;10.77;;;1.90;;
23722;SDS011;12042;52.136;5.584;2022-10-16T10:56:56;7.18;;;2.20;;
23722;SDS011;12042;52.136;5.584;2022-10-16T11:04:57;10.93;;;2.47;;
23722;SDS011;12042;52.136;5.584;2022-10-16T11:07:32;7.10;;;1.95;;
23722;SDS011;12042;52.136;5.584;2022-10-16T11:10:13;12.88;;;2.15;;
23722;SDS011;12042;52.136;5.584;2022-10-16T11:12:47;9.23;;;1.92;;
23722;SDS011;12042;52.136;5.584;2022-10-16T11:15:19;9.35;;;1.90;;
23722;SDS011;12042;52.136;5.584;2022-10-16T11:17:48;8.93;;;1.70;;
23722;SDS011;12042;52.136;5.584;2022-10-16T11:20:26;5.97;;;1.80;;
23722;SDS011;12042;52.136;5.584;2022-10-16T11:23:01;10.27;;;1.90;;
23722;SDS011;12042;52.136;5.584;2022-10-16T11:25:31;3.92;;;1.75;;
23722;SDS011;12042;52.136;5.584;2022-10-16T11:28:00;7.00;;;2.05;;
23722;SDS011;12042;52.136;5.584;2022-10-16T11:30:31;9.35;;;2.03;;
23722;SDS011;12042;52.136;5.584;2022-10-16T11:35:39;6.82;;;1.90;;
23722;SDS011;12042;52.136;5.584;2022-10-16T11:38:11;7.38;;;1.90;;
23722;SDS011;12042;52.136;5.584;2022-10-16T11:40:40;10.13;;;1.98;;
23722;SDS011;12042;52.136;5.584;2022-10-16T11:46:16;6.70;;;1.60;;
23722;SDS011;12042;52.136;5.584;2022-10-16T11:56:27;8.20;;;1.60;;
23722;SDS011;12042;52.136;5.584;2022-10-16T11:59:13;4.80;;;1.40;;
23722;SDS011;12042;52.136;5.584;2022-10-16T12:04:49;6.10;;;1.60;;
23722;SDS011;12042;52.136;5.584;2022-10-16T12:07:36;6.90;;;1.63;;
23722;SDS011;12042;52.136;5.584;2022-10-16T12:10:10;7.75;;;1.70;;
23722;SDS011;12042;52.136;5.584;2022-10-16T12:12:44;4.78;;;1.50;;
23722;SDS011;12042;52.136;5.584;2022-10-16T12:15:19;5.22;;;1.88;;
23722;SDS011;12042;52.136;5.584;2022-10-16T12:17:48;6.85;;;1.65;;
23722;SDS011;12042;52.136;5.584;2022-10-16T12:22:50;5.57;;;1.50;;
23722;SDS011;12042;52.136;5.584;2022-10-16T12:25:24;9.77;;;2.28;;
23722;SDS011;12042;52.136;5.584;2022-10-16T12:28:03;4.95;;;1.67;;
23722;SDS011;12042;52.136;5.584;2022-10-16T12:30:32;7.32;;;1.92;;
23722;SDS011;12042;52.136;5.584;2022-10-16T12:33:01;6.63;;;1.42;;
23722;SDS011;12042;52.136;5.584;2022-10-16T12:35:30;8.57;;;1.80;;
23722;SDS011;12042;52.136;5.584;2022-10-16T12:38:14;8.90;;;1.35;;
23722;SDS011;12042;52.136;5.584;2022-10-16T12:40:42;5.45;;;1.45;;
23722;SDS011;12042;52.136;5.584;2022-10-16T12:43:13;6.55;;;1.60;;
23722;SDS011;12042;52.136;5.584;2022-10-16T12:48:31;5.55;;;1.20;;
23722;SDS011;12042;52.136;5.584;2022-10-16T12:50:56;5.55;;;1.58;;
23722;SDS011;12042;52.136;5.584;2022-10-16T12:53:25;8.07;;;1.92;;
23722;SDS011;12042;52.136;5.584;2022-10-16T12:55:54;7.13;;;1.73;;
23722;SDS011;12042;52.136;5.584;2022-10-16T12:58:48;5.78;;;1.38;;
23722;SDS011;12042;52.136;5.584;2022-10-16T13:01:37;6.43;;;1.60;;
23722;SDS011;12042;52.136;5.584;2022-10-16T13:04:29;10.07;;;2.35;;
23722;SDS011;12042;52.136;5.584;2022-10-16T13:07:09;5.93;;;1.60;;
23722;SDS011;12042;52.136;5.584;2022-10-16T13:09:57;5.78;;;1.77;;
23722;SDS011;12042;52.136;5.584;2022-10-16T13:15:12;5.75;;;1.80;;
23722;SDS011;12042;52.136;5.584;2022-10-16T13:21:18;7.68;;;1.80;;
23722;SDS011;12042;52.136;5.584;2022-10-16T13:29:17;11.07;;;2.05;;
23722;SDS011;12042;52.136;5.584;2022-10-16T13:31:44;8.25;;;2.28;;
23722;SDS011;12042;52.136;5.584;2022-10-16T13:34:18;7.32;;;1.83;;
23722;SDS011;12042;52.136;5.584;2022-10-16T13:36:47;7.75;;;1.77;;
23722;SDS011;12042;52.136;5.584;2022-10-16T13:39:22;9.30;;;2.58;;
23722;SDS011;12042;52.136;5.584;2022-10-16T13:44:40;7.43;;;1.80;;
23722;SDS011;12042;52.136;5.584;2022-10-16T13:47:19;7.68;;;1.70;;
23722;SDS011;12042;52.136;5.584;2022-10-16T13:50:04;9.20;;;1.80;;
23722;SDS011;12042;52.136;5.584;2022-10-16T13:52:37;8.23;;;1.95;;
23722;SDS011;12042;52.136;5.584;2022-10-16T13:55:04;9.00;;;2.13;;
23722;SDS011;12042;52.136;5.584;2022-10-16T13:57:37;10.50;;;2.30;;
23722;SDS011;12042;52.136;5.584;2022-10-16T14:00:02;6.47;;;1.83;;
23722;SDS011;12042;52.136;5.584;2022-10-16T14:02:41;8.13;;;1.70;;
23722;SDS011;12042;52.136;5.584;2022-10-16T14:05:08;11.55;;;2.08;;
23722;SDS011;12042;52.136;5.584;2022-10-16T14:07:35;9.73;;;2.15;;
23722;SDS011;12042;52.136;5.584;2022-10-16T14:10:03;6.72;;;2.08;;
23722;SDS011;12042;52.136;5.584;2022-10-16T14:12:45;13.48;;;2.40;;
23722;SDS011;12042;52.136;5.584;2022-10-16T14:15:18;10.82;;;1.90;;
23722;SDS011;12042;52.136;5.584;2022-10-16T14:17:45;5.32;;;1.73;;
23722;SDS011;12042;52.136;5.584;2022-10-16T14:20:15;10.88;;;2.05;;
23722;SDS011;12042;52.136;5.584;2022-10-16T14:22:42;7.97;;;1.92;;
23722;SDS011;12042;52.136;5.584;2022-10-16T14:30:24;7.03;;;1.95;;
23722;SDS011;12042;52.136;5.584;2022-10-16T14:33:06;7.10;;;1.60;;
23722;SDS011;12042;52.136;5.584;2022-10-16T14:35:44;7.95;;;2.35;;
23722;SDS011;12042;52.136;5.584;2022-10-16T14:38:17;7.20;;;2.25;;
23722;SDS011;12042;52.136;5.584;2022-10-16T14:40:47;8.45;;;1.80;;
23722;SDS011;12042;52.136;5.584;2022-10-16T14:43:14;8.38;;;1.83;;
23722;SDS011;12042;52.136;5.584;2022-10-16T14:46:01;14.95;;;1.90;;
23722;SDS011;12042;52.136;5.584;2022-10-16T14:48:28;10.43;;;1.88;;
23722;SDS011;12042;52.136;5.584;2022-10-16T14:50:55;9.00;;;2.05;;
23722;SDS011;12042;52.136;5.584;2022-10-16T14:53:20;6.88;;;1.80;;
23722;SDS011;12042;52.136;5.584;2022-10-16T14:55:46;11.15;;;2.03;;
23722;SDS011;12042;52.136;5.584;2022-10-16T14:58:14;10.02;;;2.25;;
23722;SDS011;12042;52.136;5.584;2022-10-16T15:00:45;9.45;;;2.30;;
23722;SDS011;12042;52.136;5.584;2022-10-16T15:03:11;7.70;;;1.75;;
23722;SDS011;12042;52.136;5.584;2022-10-16T15:05:37;8.55;;;2.08;;
23722;SDS011;12042;52.136;5.584;2022-10-16T15:08:02;8.05;;;2.00;;
23722;SDS011;12042;52.136;5.584;2022-10-16T15:10:29;12.38;;;1.92;;
23722;SDS011;12042;52.136;5.584;2022-10-16T15:12:56;9.50;;;2.35;;
23722;SDS011;12042;52.136;5.584;2022-10-16T15:17:48;9.82;;;1.80;;
23722;SDS011;12042;52.136;5.584;2022-10-16T15:20:17;6.25;;;1.83;;
23722;SDS011;12042;52.136;5.584;2022-10-16T15:22:43;10.20;;;2.03;;
23722;SDS011;12042;52.136;5.584;2022-10-16T15:28:00;11.02;;;2.50;;
23722;SDS011;12042;52.136;5.584;2022-10-16T15:30:27;7.32;;;1.83;;
23722;SDS011;12042;52.136;5.584;2022-10-16T15:32:53;7.43;;;2.22;;
23722;SDS011;12042;52.136;5.584;2022-10-16T15:35:19;9.68;;;2.50;;
23722;SDS011;12042;52.136;5.584;2022-10-16T15:37:46;8.30;;;2.25;;
23722;SDS011;12042;52.136;5.584;2022-10-16T15:40:13;8.77;;;2.25;;
23722;SDS011;12042;52.136;5.584;2022-10-16T15:42:39;11.95;;;2.47;;
23722;SDS011;12042;52.136;5.584;2022-10-16T15:45:05;5.65;;;1.83;;
23722;SDS011;12042;52.136;5.584;2022-10-16T15:47:31;6.53;;;2.30;;
23722;SDS011;12042;52.136;5.584;2022-10-16T15:49:57;10.45;;;2.95;;
23722;SDS011;12042;52.136;5.584;2022-10-16T15:52:22;12.93;;;3.17;;
23722;SDS011;12042;52.136;5.584;2022-10-16T15:54:48;14.23;;;3.20;;
23722;SDS011;12042;52.136;5.584;2022-10-16T15:57:14;11.90;;;2.97;;
23722;SDS011;12042;52.136;5.584;2022-10-16T15:59:39;13.00;;;3.63;;
23722;SDS011;12042;52.136;5.584;2022-10-16T16:02:05;10.15;;;2.90;;
23722;SDS011;12042;52.136;5.584;2022-10-16T16:04:30;9.43;;;2.55;;
23722;SDS011;12042;52.136;5.584;2022-10-16T16:06:56;9.55;;;2.88;;
23722;SDS011;12042;52.136;5.584;2022-10-16T16:09:22;9.80;;;2.90;;
23722;SDS011;12042;52.136;5.584;2022-10-16T16:11:48;8.75;;;2.38;;
23722;SDS011;12042;52.136;5.584;2022-10-16T16:14:16;7.97;;;2.70;;
23722;SDS011;12042;52.136;5.584;2022-10-16T16:16:41;8.23;;;2.42;;
23722;SDS011;12042;52.136;5.584;2022-10-16T16:19:07;9.20;;;2.95;;
23722;SDS011;12042;52.136;5.584;2022-10-16T16:21:34;9.68;;;3.33;;
23722;SDS011;12042;52.136;5.584;2022-10-16T16:24:00;12.63;;;3.20;;
23722;SDS011;12042;52.136;5.584;2022-10-16T16:26:26;10.25;;;4.03;;
23722;SDS011;12042;52.136;5.584;2022-10-16T16:29:00;10.52;;;4.63;;
23722;SDS011;12042;52.136;5.584;2022-10-16T16:31:27;10.38;;;5.60;;
23722;SDS011;12042;52.136;5.584;2022-10-16T16:33:54;16.77;;;4.40;;
23722;SDS011;12042;52.136;5.584;2022-10-16T16:36:21;11.55;;;4.63;;
23722;SDS011;12042;52.136;5.584;2022-10-16T16:38:47;13.32;;;5.25;;
23722;SDS011;12042;52.136;5.584;2022-10-16T16:41:13;10.63;;;5.53;;
23722;SDS011;12042;52.136;5.584;2022-10-16T16:43:40;10.60;;;4.93;;
23722;SDS011;12042;52.136;5.584;2022-10-16T16:46:06;15.63;;;5.20;;